Bala Standard Distance Tri - 7th September 2014
European Qualifier / Date of Birth 31/12/2015
Pos RaceNo Name From Gen Cat Gender idnumber Time Pos_1 CategPos GenderPos
1 10 Liam LLOYD Leeds Triathlon Center M20-24 Male W126828 01:50:43 1 1 1
2 17 Alex THORLEY Team Pro Motion Dynamics M20-24 Male   01:52:58 2 2 2
3 79 James TRAVERS Guernsey Tri M25-29 Male E1051002 01:54:23 3 1 3
4 6 Ross HOSKING Cadence Tri M16-19 Male W1045435 01:54:47 4 3 4
5 47 Jack LAWSON Mersey Tri M25-29 Male E1038842 01:54:55 5 1 5
6 25 Ben COCKBURN Orpington Ojays/ 7oaks Tri M20-24 Male E1031840 01:55:25 6 4 6
7 167 Matt BARNES Manchester Triathlon Club M35-39 Male E1013459 01:56:40 7 1 7
8 36 Will RUSSELL Bristol & District Triathletes (Bad Tri) M20-24 Male E1036889 01:58:24 8 2 8
9 161 Chris GRAHAM ONE Triathlon RDS M35-39 Male E133598 01:58:42 9 2 9
10 72 Ross SIMPSON Urban Cyclery Swansea M25-29 Male W138494 01:58:56 10 2 10
11 396 David MURRAY Pencoed Triathlon Club M40-44 Male W1041104 01:59:22 11 1 11
12 142 Pete SHUTTLEWORTH TriathloncoachingUK M35-39 Male E1034770 01:59:23 12 3 12
13 23 Peter HOGBEN Deal Triathlon Club M20-24 Male E1042759 01:59:33 13 5 13
14 110 Nicholas DYER Trisquad (Newmarket Tri) M30-34 Male E1035223 01:59:37 14 3 14
15 112 Kevin DIGBY Plymouth Triathlon Club M30-34 Male   01:59:44 15 4 15
16 13 Steven SIMS U/A M20-24 Male E1053116 02:00:24 16 6 16
17 395 Simon SHAW U/A M40-44 Male E1047915 02:00:35 17 2 17
18 9 Kieran JOHN Cardiff Metropolitan University M20-24 Male W123062 02:00:45 18 7 18
19 56 Stewart MOORE Manchester Triathlon Club M25-29 Male E1043145 02:01:04 19 3 19
20 18 Brennan TOWNSHEND Exeter Triathlon Club M20-24 Male E1054996 02:01:11 20 8 20
21 85 Adam SHEPPARD RAF Triathlon M30-34 Male E1048120 02:01:29 21 5 21
22 57 Boe HARPER David Lloyd portsolent M25-29 Male   02:01:44 22 4 22
23 127 Mark SYKES U/A M30-34 Male E123633 02:01:53 23 4 23
24 154 Richard DANDO Pencoed Triathlon Club M35-39 Male W125638 02:01:54 24 5 24
25 61 Andrew GRAY U/A M25-29 Male E1041550 02:02:05 25 5 25
26 81 Phillip LYNES U/A M30-34 Male W1047755 02:02:09 26 6 26
27 39 Jack MACFARLANE Thames Turbo Triathlon CLub M20-24 Male E1047189 02:02:18 27 6 27
28 54 Hamish SHAW TORQ M25-29 Male E128241 02:02:29 28 7 28
29 35 Iain GILLAM U/A M20-24 Male E1039151 02:02:30 29 8 29
30 99 Tom WILSON F4L Coaching M30-34 Male E133739 02:02:34 30 7 30
31 69 David GORLEY Leicester Tri Club M25-29 Male E133383 02:02:40 31 9 31
32 29 Adam NEWTON Celtic Tri M20-24 Male W1048217 02:02:42 32 9 32
33 372 Samuel WEBSTER Cardiff Triathlon Club M40-44 Male W137766 02:02:43 33 3 33
34 414 Keith BROWN U/A M40-44 Male E126399 02:02:50 34 4 34
35 27 Simon PARKER Scarab Triathlon Club M20-24 Male E1053164 02:02:59 35 10 35
36 115 Robert FORD Stratford upon Avon AC M30-34 Male E136935 02:03:03 36 8 36
37 362 Mark ARNDT West Lothian Triathlon M40-44 Male S1045160 02:03:17 37 5 37
38 439 Des MCMANUS Stafford Triathlon Club M45-49 Male   02:03:18 38 1 38
39 382 Peter BENTLEY Leicester Tri Club M40-44 Male E1039693 02:03:26 39 6 39
40 380 Lee MORETON Black Country Triathletes M40-44 Male E1037330 02:03:33 40 7 40
41 563 Bob PEARCE Army Triathlon Association M50-54 Male E129044 02:03:41 41 1 41
42 73 John BEARDSWORTH U/A M25-29 Male   02:03:46 42 9 42
43 68 David ATKINSON U/A M25-29 Male   02:03:57 43 10 43
44 64 Andrew WOODWARD Fleetwood Triathlon Club M25-29 Male E1041438 02:04:02 44 11 44
45 134 Antony BELL-SCOTT Manx Tri Club M35-39 Male   02:04:02 45 6 45
46 28 Eliot TAYLOR Hereford Triathlon Club M20-24 Male E1053624 02:04:07 46 11 46
47 158 John CURRY U/A M35-39 Male E1054499 02:04:08 47 7 47
48 95 Des DEVLIN Taff Ely Triathlon Club M30-34 Male W1045236 02:04:25 48 10 48
49 97 Chris EGGLETON Greenwich Tritons M30-34 Male E1051027 02:04:27 49 11 49
50 483 Jonny RAWLINGS Cheltenham Tri M45-49 Male E3110 02:04:38 50 2 50
51 44 Matthew WHEELER Cardiff Triathlon Club M25-29 Male   02:04:47 51 12 51
52 388 James RICHARDS Hereford Triathlon Club M40-44 Male E1050976 02:04:49 52 8 52
53 183 Markus ALLEN Greenwich Tritons M35-39 Male E1043548 02:04:50 53 8 53
54 377 Christopher WOOD Black Country Triathletes / Macca X M40-44 Male E135205 02:05:08 54 9 54
55 41 Oliver GRAHAM Chester Tri (Blair Davies Coaching) M25-29 Male   02:05:09 55 13 55
56 457 Iain MURRAY City of Chester Triathlon Club M45-49 Male E1051428 02:05:13 56 3 56
57 140 Tim DODKIN U/A M35-39 Male E137682 02:05:17 57 9 57
58 100 Stephen JELLEY Leicester Tri M30-34 Male E1047338 02:05:34 58 12 58
59 234 Catherine JAMESON Pedal Power  Loughborough F30-34 Female E1055243 02:05:45 59 1 1
60 119 Simon BRIERLEY Rochdale Triathlon Club M30-34 Male E1052841 02:05:46 60 10 59
61 423 Nick MORTIMER U/A M40-44 Male E1034452 02:05:59 61 10 60
62 192 David KNIGHT Hillingdon Triathletes M35-39 Male E127413 02:06:04 62 11 61
63 77 Lee BAYNTON EAST ESSEX TRI CLUB M25-29 Male E1046788 02:06:11 63 13 62
64 37 Dean WATSON Tripackrt M20-24 Male E1042039 02:06:16 64 14 63
65 441 Tim BURNETT Wrecsam Tri Club M45-49 Male W127958 02:06:24 65 4 64
66 511 Steven WALKER City of Chester Triathlon Club M45-49 Male E1050908 02:06:34 66 2 65
67 532 Mark SCOTT Hillingdon Triathletes M50-54 Male E1041230 02:06:36 67 3 66
68 137 Thomas GARNER Brighton Triathlon Club M35-39 Male E1053316 02:06:42 68 11 67
69 449 Stephen STONEMAN Bott Cycle Team M45-49 Male E508 02:06:43 69 5 68
70 460 Chris CREAGHAN U/A M45-49 Male   02:06:58 70 6 69
71 204 Sarah HODGSON C.O.L.T (City of Lancaster Triathlon) F19-19 Female E1030473 02:06:59 71 1 2
72 63 Richard MOYS PACTRAC M25-29 Male E1050715 02:07:04 72 15 70
73 434 Jon WICKETT Cirencester Triathlon Club M40-44 Male W1054864 02:07:07 73 7 71
74 435 Andrew BIRCH TRISMART M40-44 Male   02:07:16 74 8 72
75 172 Mik ONIONS brighton tri club M35-39 Male E1047402 02:07:20 75 12 73
76 361 Darren PRESTON NiceTri M40-44 Male E1045308 02:07:24 76 12 74
77 522 Ian Kenny ROBERTS Stroud Athletic M45-49 Male   02:07:31 77 4 75
78 184 Steffan FORD Team Trisports M35-39 Male W133198 02:07:39 78 13 76
79 16 Daniel FRANKS University Of Birmingham Triathlon Team M20-24 Male E1052095 02:07:43 79 12 77
80 512 Glen JOHNSON Wetherby runners athletics club M45-49 Male E1046526 02:07:46 80 5 78
81 52 Peter HALL U/A M25-29 Male   02:07:48 81 16 79
82 82 Ross KENT U/A M30-34 Male E1040789 02:08:04 82 14 80
83 34 Alistair WOOD Team Wosskow Brown M20-24 Male E1045509 02:08:06 83 17 81
84 425 Craig SEPHTON VALE ROYAL ATHLETICS CLUB M40-44 Male E136047 02:08:14 84 9 82
85 109 Steven BEANEY MedwayTri M30-34 Male E1055580 02:08:24 85 15 83
86 450 David ASTINS Pembrokeshire Tri M45-49 Male W118748 02:08:24 86 10 84
87 15 Dan HARBIDGE Warrington Tri Club M20-24 Male   02:08:28 87 13 85
88 149 David PERRY Birmingham Running  Athletics & Triathlon Club M35-39 Male E134711 02:08:29 88 14 86
89 87 Dylan GRIFFITHS U/A M30-34 Male W1055390 02:08:34 89 16 87
90 144 Kris CAPPERAULD york triathlon M35-39 Male E1044042 02:08:36 90 15 88
91 8 Nicholas HAWORTH manchester M19-19 Male E1035271 02:08:50 91 14 89
92 106 Andy ROBINSON Born 2 Tri M30-34 Male E1043849 02:09:02 92 17 90
93 427 Scott WHITTLESTONE City of Chester Triathlon Club M40-44 Male E1052189 02:09:09 93 11 91
94 124 David NASH Black Country Triathletes M30-34 Male E1036594 02:09:10 94 16 92
95 516 Graham STARMER Team Synergie Coaching M45-49 Male E4729 02:09:20 95 6 93
96 26 Elliott PACKHAM University Of Birmingham Triathlon Team M20-24 Male E1050686 02:09:21 96 15 94
97 108 Claudio PICCO Hillingdon Triathletes M30-34 Male E1049752 02:09:21 97 18 95
98 101 Ed TAYLOR Tyne Triathlon M30-34 Male   02:09:30 98 19 96
99 197 Jon DANCE Salford Harriers M35-39 Male   02:09:31 99 13 97
100 429 Chris DUNHAM Stortford Tri M40-44 Male E1042548 02:09:47 100 12 98
101 440 Stephen WALKER Greenwich Tritons M45-49 Male E129313 02:09:57 101 13 99
102 91 Ben MELTON Brighton Triathlon Club M30-34 Male E1040996 02:10:01 102 20 100
103 438 Steven BLAKEMORE Black Country Triathletes M45-49 Male E1040096 02:10:06 103 14 101
104 367 Mark BAILEY Born2Tri M40-44 Male E1028155 02:10:08 104 14 102
105 499 Mike COOPER Chichester Westgate Triathlon Club M45-49 Male E128574 02:10:10 105 15 103
106 92 Kris WHITELAW North Shields Poly M30-34 Male E1050714 02:10:13 106 21 104
107 138 David SWANICK Mersey Tri M35-39 Male E1052904 02:10:16 107 17 105
108 65 Sean CUFFLEY Lincoln Tri M25-29 Male E1049083 02:10:18 108 18 106
109 513 Stuart DYER Wight Tri M45-49 Male E1048229 02:10:20 109 7 107
110 422 Carl SHAWCROSS MedwayTri M40-44 Male E1032501 02:10:23 110 15 108
111 11 James BRISCOE Bangor University Triathlon Team M20-24 Male E1034974 02:10:26 111 16 109
112 403 Lawrence WEBB Rugby Triathlon Club M40-44 Male E1044164 02:10:26 112 16 110
113 478 Nick ESCRITT Bristol & District Triathletes (Bad Tri) M45-49 Male E138173 02:10:37 113 16 111
114 529 Colin CHAMBERS Mid Sussex Triathlon Club M50-54 Male E125193 02:10:41 114 8 112
115 466 Clive BOULTON City of Chester Triathlon Club M45-49 Male W1033137 02:10:46 115 17 113
116 481 Tony DANIELS U/A M45-49 Male E1037147 02:10:52 116 18 114
117 458 Ian LIDDIATT Cardiff Triathlon Club M45-49 Male W137683 02:10:57 117 19 115
118 493 Iain MARTIN Brighton Phoenix M45-49 Male   02:11:00 118 20 116
119 410 Neil MILLWARD Black Country Triathletes M40-44 Male E134412 02:11:01 119 17 117
120 565 Malcolm HUGHES Brighton Phoenix M50-54 Male E9361 02:11:05 120 9 118
121 456 Gary SPENCER North Devon Triathletes M45-49 Male E134607 02:11:06 121 21 119
122 447 Stuart WOODRUFF Olney Multisport M45-49 Male E134759 02:11:26 122 22 120
123 58 James GRIFFITHS Tri Camp Race Team M25-29 Male E1030490 02:11:52 123 19 121
124 680 Ollie SMITH Relay - 9bar BREL Unisex   02:11:57 124 1 1
125 173 Paul PERRY Thames Turbo M35-39 Male E120277 02:12:03 125 18 122
126 263 Helen MARSHALL INTRtri F35-39 Female W1043509 02:12:07 126 1 3
127 150 Chris STILGOE Titans Triathlon Club M35-39 Male   02:12:09 127 19 123
128 374 Curtis MANSBRIDGE Manchester Triathlon Club M40-44 Male   02:12:14 128 18 124
129 392 Tim TANSLEY OO Tri (Oswestry Olympians) M40-44 Male   02:12:19 129 19 125
130 86 Fabien ROSSO Herne Hill Harriers M30-34 Male E1046003 02:12:30 130 22 126
131 405 Mark BELL Tyne Triathlon M40-44 Male E137395 02:12:30 131 20 127
132 475 Ian LEE-EMERY Berkshire Tri Squad M45-49 Male E126654 02:12:45 132 23 128
133 556 David BENNETT TRIKS M50-54 Male E1049656 02:12:52 133 10 129
134 404 John OLIVER Blackpool Aquatics ASC (BATS) M40-44 Male E1050255 02:12:58 134 21 130
135 412 Roland EVANS TFN Tri Club M40-44 Male   02:13:05 135 22 131
136 379 James THOMAS U/A M40-44 Male   02:13:06 136 23 132
137 576 Gordon STUTCHBURY Sun City Tri M50-54 Male E137754 02:13:09 137 1 133
138 573 Martin KERRY Tri Clan M50-54 Male E11268 02:13:15 138 2 134
139 128 Tim BUCKLEY york triathlon M30-34 Male   02:13:23 139 20 135
140 363 Paul CUBBINS Mersey Tri M40-44 Male E1046240 02:13:27 140 24 136
141 24 Matthew HAMMOND City of Chester Triathlon Club M20-24 Male E1054727 02:13:28 141 17 137
142 514 Mike PFEIFFER Hereford Triathlon Club M45-49 Male W1045965 02:13:28 142 11 138
143 539 Alexander(sandy) TELFER TRI3 SLEAFORD M50-54 Male E1035769 02:13:28 143 12 139
144 469 Geoffrey INGRAM U/A M45-49 Male W1048480 02:13:35 144 24 140
145 181 Dominic MASTERS Ful-on Tri M35-39 Male   02:13:37 145 21 141
146 31 Alexander LAKE U/A M20-24 Male E1050197 02:13:45 146 20 142
147 153 Steven ANYON ONE Triathlon RDS M35-39 Male E1037062 02:13:45 147 22 143
148 383 Richard PRICE TEAM MANVERS M40-44 Male E1048462 02:13:46 148 25 144
149 5 James KERSHAW U/A M16-19 Male E1052384 02:13:53 149 18 145
150 222 Katie SILKE Swansea Bay Triathlon F25-29 Female E125567 02:14:23 150 1 4
151 544 Darrell ROBINS Thames Valley Triathletes M50-54 Male E127675 02:14:26 151 13 146
152 406 Neil THOMAS City of Chester Triathlon Club M40-44 Male E1037833 02:14:30 152 26 147
153 4 Jacob ANSON Black Country Triathletes M16-19 Male E138002 02:14:34 153 19 148
154 252 Ellie ASTINS Pembrokeshire Tri F30-34 Female W1030861 02:14:36 154 2 5
155 684 Steve NICHOLLS Relay - Steve Nicholls BREL Unisex W7032949 02:14:44 155 1 2
156 591 Richard COOPER U/A M55-59 Male   02:14:45 156 3 149
157 510 Gavin LUMB City of Chester Triathlon Club M45-49 Male E1056189 02:14:59 157 14 150
158 185 Paul WEBB Northants Tri M35-39 Male E136287 02:15:00 158 23 151
159 126 Nick GOY U/A M30-34 Male E1055500 02:15:02 159 24 152
160 488 Matthew HARTLEY Sheffield Triathlon Club M45-49 Male   02:15:02 160 25 153
161 386 Ewan EATON Leicester Triathlon Club M40-44 Male E1043981 02:15:08 161 27 154
162 33 Mark FROST U/A M20-24 Male E1054180 02:15:17 162 21 155
163 432 Andrew DOW Manchester Triathlon Club M40-44 Male E1032715 02:15:27 163 26 156
164 366 Nick BLACKHAM Black Country Triathletes M40-44 Male E135891 02:15:34 164 28 157
165 55 Benedict HEANEY Team Cherwell M25-29 Male   02:15:35 165 22 158
166 224 Vikki FRITH Thames Valley Triathletes F25-29 Female E1031789 02:15:59 166 2 6
167 537 Stephen HUNT Leeds And Bradford Triathlon Club M50-54 Male E1049543 02:16:03 167 15 159
168 148 Wayne STAINSBY PACTRAC M35-39 Male E1048635 02:16:04 168 25 160
169 523 Stephen HASLER Chichester Westgate Triathlon Club M45-49 Male E126229 02:16:21 169 16 161
170 122 John WALLAS Total Tri Training M30-34 Male E1050672 02:16:22 170 26 162
171 40 James SMITH TYF Tri Club M20-24 Male S1036652 02:16:26 171 23 163
172 378 Daniel BUNTING kenilworth Wheelers M40-44 Male E1040622 02:16:31 172 29 164
173 385 Mark BYRNE U/A M40-44 Male   02:16:37 173 30 165
174 187 Darryl PYPER City of Chester Triathlon Club M35-39 Male E1040772 02:16:45 174 27 166
175 121 Mike DOUGLAS Warrington Tri Club M30-34 Male   02:16:46 175 28 167
176 214 Emma STEVENS Born 2 Tri F20-24 Female E1038393 02:16:49 176 3 7
177 421 Gareth ANDERSON U/A M40-44 Male W1045955 02:16:50 177 31 168
178 477 Paul HOWLETT Blackpool Aquatics Triathlon M45-49 Male E1039349 02:16:50 178 27 169
179 238 Andrea ROBINETT BRJ Run and Tri F30-34 Female E1033974 02:16:52 179 2 8
180 467 Karl FISHER Stafford Triathlon Club M45-49 Male   02:17:06 180 28 170
181 375 David HUNTER Team Triathlon Europe M40-44 Male   02:17:12 181 32 171
182 333 Celia WHITE Pembrokeshire Triathlon Club F45-49 Female W1039989 02:17:13 182 1 9
183 391 Lee BIBBY Manchester Triathlon Club M40-44 Male E1033961 02:17:21 183 33 172
184 534 Paul MANNION Manchester Triathlon Club M50-54 Male E1048126 02:17:22 184 17 173
185 271 Rebecca BRAND Manchester Triathlon Club F35-39 Female E1046055 02:17:28 185 3 10
186 364 Dan MASON Andover Triathlon Club M40-44 Male E1038664 02:17:28 186 34 174
187 156 Stuart MARSH Oxford Tri M35-39 Male E138198 02:17:30 187 29 175
188 104 Daniel LONGHURST Larkfield AC M30-34 Male E1040324 02:17:32 188 23 176
189 305 Dorothy LIVIABELLA U/A F45-49 Female E37492 02:17:35 189 1 11
190 229 Marie Ann VOICE Birmingham Running  Athletics & Triathlon Club F25-29 Female E1054211 02:17:51 190 4 12
191 48 Alex RHODES David Lloyd Port Solent M25-29 Male E1047979 02:17:55 191 24 177
192 114 Paul PULZE SERPENTINE RUNNING CLUB M30-34 Male   02:17:56 192 24 178
193 567 Martin EVANS U/A M50-54 Male   02:18:02 193 18 179
194 600 Paddy FINN Kendal Tri Club M55-59 Male E1031252 02:18:09 194 4 180
195 213 Caroline HIGGINS U/A F20-24 Female   02:18:16 195 5 13
196 487 Mark SOUTHALL Black Country Triathletes M45-49 Male E1030256 02:18:21 196 29 181
197 2 Harry PRESTON Hammer Sports M16-19 Male E1053233 02:18:25 197 20 182
198 256 Shelley JONES Greenwich Tritons F30-34 Female E1047010 02:18:57 198 4 14
199 581 Peter HOLLINS B2P tri Club M55-59 Male   02:19:05 199 5 183
200 261 Lara NEWELL U/A F35-39 Female E1035477 02:19:10 200 5 15
201 221 Jessica DICKSON City of Chester Triathlon Club F25-29 Female W1050866 02:19:17 201 6 16
202 474 Julian HACKETT Leicester Tri Club M45-49 Male E135277 02:19:26 202 30 184
203 495 Martin HARRIS Randoms M45-49 Male W1040173 02:19:39 203 31 185
204 66 Rory MERCHANT U/A M25-29 Male   02:19:48 204 25 186
205 402 Marcus SHERIDAN TRICLAN M40-44 Male E138507 02:19:50 205 35 187
206 125 Mark BENSON City of Chester Triathlon Club M30-34 Male   02:19:51 206 30 188
207 14 Ewen MACRURY Knutsford Tri Club M20-24 Male E1044156 02:19:55 207 21 189
208 564 John HAMPSON National Fire Service M50-54 Male E135333 02:19:57 208 19 190
209 198 Robert GILL Leeds Bradford Triathlon M35-39 Male E1030230 02:20:02 209 36 191
210 369 Grant WHITESIDE TRI-BOW M40-44 Male W1036572 02:20:04 210 37 192
211 152 Dicky DAVIES Share A Campervan M35-39 Male   02:20:05 211 31 193
212 162 James MCINERNEY U/A M35-39 Male   02:20:07 212 32 194
213 293 Alison LEAVENS City of Chester Triathlon Club F40-44 Female E121335 02:20:16 213 1 17
214 32 Alister BROWN TRIKS M20-24 Male E1044881 02:20:28 214 26 195
215 574 Dave BETHELL U/A M50-54 Male E1044287 02:20:35 215 6 196
216 244 Jessica HARVEY U/A F30-34 Female E1049472 02:20:38 216 3 18
217 430 Sean SIMMONS City of Chester Triathlon Club M40-44 Male E1052212 02:20:39 217 32 197
218 445 Allon HOSKIN Wrecsam Tri Club M45-49 Male W1053979 02:20:39 218 33 198
219 174 Steven CROWLEY Exeter Triathlon Club U35-39 Male Para   02:20:41 219 1 1
220 471 Paul MITCHELL Wrecsam Tri Club M45-49 Male   02:20:42 220 34 199
221 103 John KEEGAN Knutsford Tri Club M30-34 Male   02:20:44 221 25 200
222 264 Sarah SMITH U/A F35-39 Female E1042293 02:20:48 222 6 19
223 559 Andrew PRYKE Team Milton Keynes M50-54 Male E132650 02:20:49 223 20 201
224 260 Charlotte ADDICOTT Cardiff Triathlon Club F35-39 Female W1042191 02:20:55 224 7 20
225 472 Eric PERRIER Tunbridge Wells Triathlon Club M45-49 Male E1032568 02:21:10 225 35 202
226 582 Richard ELLIOTT U/A M55-59 Male E1052491 02:21:11 226 7 203
227 7 Callum RENNET Monifieth Triathlon Club M19-19 Male S1036193 02:21:14 227 22 204
228 200 Iwain JONES U/A M25-29 Male 02:21:21 228 27 205
229 116 James TUSTIN Absolute Triathlon Club - Worcester M30-34 Male E1046798 02:21:24 229 33 206
230 492 Simon KETTLE U/A M45-49 Male   02:21:33 230 36 207
231 62 Jonathan CARTER City of Chester Triathlon Club M25-29 Male   02:21:41 231 28 208
232 546 Gary EMBURY Portishead and Clevedon Tri Club M50-54 Male E1051373 02:21:44 232 21 209
233 251 Laura BOSTOCK Manchester Triathlon Club F30-34 Female E1048871 02:21:55 233 8 21
234 373 Andrew MUNDY Cr@p Tri M40-44 Male W1054770 02:21:57 234 38 210
235 489 Mike BARLEY City of Chester Triathlon Club M45-49 Male W1056004 02:22:01 235 37 211
236 268 Annica GODDARD SY Tri (Shrewsbury Triathlon) F35-39 Female E1037762 02:22:07 236 9 22
237 508 Adrian WILKINS Bristol & District Triathletes (Bad Tri) M45-49 Male E135986 02:22:09 237 22 212
238 459 Des LARKIN U/A M45-49 Male   02:22:15 238 38 213
239 59 Tom MORGAN Hull and East Yorkshire Triathlon Club M25-29 Male E1051998 02:22:21 239 29 214
240 324 Margret TEBRAKE TFN F45-49 Female E1038553 02:22:29 240 2 23
241 196 Mark COX U/A M35-39 Male   02:22:38 241 39 215
242 136 Chris RYAN Mersey Tri M35-39 Male   02:22:43 242 34 216
243 269 Nicola KAYE ONE Triathlon RDS F35-39 Female E1050098 02:22:44 243 10 24
244 446 Simon LEWIS U/A M45-49 Male E135506 02:22:44 244 39 217
245 298 Victoria KOLLARD U/A F40-44 Female E1033763 02:23:12 245 3 25
246 203 Ella DOBSON U/A F19-19 Female E1038775 02:23:16 246 2 26
247 583 David GILKES Mersey Tri M55-59 Male E1031737 02:23:16 247 8 218
248 424 Karl PROTHERO U/A M40-44 Male   02:23:17 248 40 219
249 515 Simon FOX Mersey Tri M45-49 Male E131882 02:23:19 249 23 220
250 247 Ruth THOM Salisbury Tri Club F30-34 Female E1041656 02:23:26 250 4 27
251 463 Stephen NAYLER U/A M45-49 Male E1056368 02:23:28 251 41 221
252 322 Julie WEBB City of Chester Triathlon Club F45-49 Female E5111 02:23:31 252 4 28
253 312 Ruth JOHNSTONE Tewkesbury Triathlon Club F45-49 Female E1039709 02:23:34 253 5 29
254 19 Joshua EMBURY Portishead and clevedon triathlon club M20-24 Male   02:23:41 254 23 222
255 334 Nicki RUSHTON Chorley Harriers and Tri F45-49 Female E1048340 02:23:41 255 2 30
256 418 James BOARDWELL Sheffield Triathlon Club M40-44 Male   02:23:42 256 40 223
257 592 Iain GERRARD Tri2O M55-59 Male   02:23:56 257 9 224
258 501 Glenn PALMER U/A M45-49 Male   02:23:58 258 42 225
259 45 Nick BUGLER U/A M25-29 Male   02:24:11 259 30 226
260 258 Rachel CROSSLEY Manchester Triathlon Club F35-39 Female E1052327 02:24:11 260 11 31
261 220 Ellie POWELL Cardiff Triathletes F25-29 Female   02:24:13 261 7 32
262 280 Lynsey ELLIOTT Manx Tri Club F35-39 Female   02:24:15 262 2 33
263 1 Joshua EVANS Black Country Triathletes M16-19 Male E122448 02:24:19 263 24 227
264 129 Damian EVANS U/A M35-39 Male W136761 02:24:21 264 35 228
265 531 Christopher CHAPPELL Exeter Triathlon Club M50-54 Male E1049937 02:24:22 265 24 229
266 232 Gemma MARSHALL Phoenix Triathlon Club F30-34 Female E1045094 02:24:23 266 5 34
267 80 David ROBERTS U/A M30-34 Male   02:24:26 267 26 230
268 548 John PUTT U/A M50-54 Male E1055592 02:24:29 268 25 231
269 217 Bethan GRIFFITHS Wrecsam Tri Club F25-29 Female   02:24:31 269 8 35
270 111 Richard THOMAS Wrecsam Tri Club M30-34 Male   02:24:58 270 27 232
271 278 Ruth HETHERINGTON Arragons Cumbrian Tri Club F35-39 Female E1049337 02:25:00 271 3 36
272 205 Lauren EVANS Black Country Triathletes F19-19 Female E120510 02:25:04 272 3 37
273 178 Jamie BROWN Wrecsam Tri Club M35-39 Male   02:25:11 273 36 233
274 300 Hester POLLOCK Beachborough School F40-44 Female E132458 02:25:11 274 6 38
275 266 Jodie SMITH Long Eaton F35-39 Female E1045959 02:25:13 275 12 39
276 411 Andrew MILN CHESTER TRI CLUB M40-44 Male   02:25:20 276 41 234
277 240 Rebecca JOHN U/A F30-34 Female   02:25:23 277 6 40
278 416 Max WILLIAMS Wrecsam Tri Club M40-44 Male W1041396 02:25:24 278 42 235
279 542 Martin SHEPHERD Rochdale Triathlon Club M50-54 Male   02:25:25 279 26 236
280 317 Helen FRENCH Team Cherwell F45-49 Female E8693 02:25:27 280 7 41
281 279 Louise WALKER Greenwich Tritons F35-39 Female E1045333 02:25:34 281 4 42
282 663 Keith BATE Black Country Triathletes M60-64 Male E125225 02:25:36 282 1 237
283 133 Christopher WALLACE Cadence Tri M35-39 Male W1047621 02:25:37 283 37 238
284 584 Stuart COLLINS Somerset RC Tri M55-59 Male   02:25:54 284 10 239
285 524 Peter Johnson U/A M45-49 Male 02:25:57 285 43 240
286 243 Jenny EVANS C.O.L.T (City of Lancaster Triathlon) F30-34 Female E1048938 02:26:00 286 7 43
287 287 Yvonne CASWELL Stratford upon Avon AC F40-44 Female E1035974 02:26:00 287 5 44
288 586 Tim TAYLOR Hereford Triathlon Club M55-59 Male   02:26:02 288 11 241
289 454 Mark LOMAX Hillingdon Triathletes M45-49 Male E1049069 02:26:03 289 44 242
290 654 Michael DONOVAN Hillingdon Triathletes M55-59 Male   02:26:05 290 2 243
291 426 Paul SIMPSON Leeds & Bradford Triathlon Club M40-44 Male E1054530 02:26:06 291 45 244
292 3 Cai ROBERTS Clwb Beicio Y Bala M16-19 Male   02:26:13 292 25 245
293 145 Lee ARMSTRONG U/A M35-39 Male   02:26:25 293 38 246
294 309 Lucy WELLS Wight Tri F45-49 Female E1043195 02:26:26 294 8 45
295 313 Natasha GEERE Leeds And Bradford Triathlon Club F45-49 Female E1048554 02:26:35 295 9 46
296 50 Danny PARR Rochdale Triathlon Club M25-29 Male E1044708 02:26:37 296 31 247
297 276 Josephine PERRY Thames Turbo F35-39 Female E121091 02:26:39 297 13 47
298 596 Martin HOPWOOD Farnham Triathlon Club M55-59 Male E135198 02:26:41 298 12 248
299 225 Mary BELL Ful-on Tri F25-29 Female E1049617 02:26:49 299 9 48
300 166 Scott HOWARD U/A M35-39 Male   02:26:52 300 39 249
301 340 Alex LE BEK Military 1st Fitness F50-54 Female E1050293 02:27:06 301 3 49
302 530 Mark RIGBY Harlech Triathlon M50-54 Male W1043363 02:27:09 302 27 250
303 43 Nicholas WOOD Mersey Tri M25-29 Male E1042436 02:27:16 303 32 251
304 358 Tricia BELL Cleveland Triathlon Club F60-64 Female E1050449 02:27:21 304 1 50
305 420 Simon BERREY U/A M40-44 Male E137027 02:27:22 305 43 252
306 590 Julian MELDRUM LONDON FRONTRUNNERS M55-59 Male E132928 02:27:31 306 13 253
307 46 Toby LEEDS Royal Navy Triathlon M25-29 Male   02:27:33 307 33 254
308 70 William GREEN U/A M25-29 Male   02:27:33 308 34 255
309 228 Louise KELLY Balanced Performance F25-29 Female   02:27:38 309 10 51
310 431 Anthony LIVIABELLA Stroud Tri Club M40-44 Male E1038253 02:27:47 310 46 256
311 490 James EVANS U/A M45-49 Male E1037843 02:27:54 311 47 257
312 538 Kevin HANCOCK brighton tri club M50-54 Male E1048047 02:28:15 312 28 258
313 239 Katarina BURNS U/A F30-34 Female   02:28:23 313 8 52
314 303 Andrea VAUGHAN INTRtri F45-49 Female W1041396 02:28:27 314 10 53
315 390 Barry LODER Wrecsam Tri Club M40-44 Male   02:28:29 315 44 259
316 165 Robert CASSIDY Trieasy M35-39 Male E1048982 02:28:37 316 40 260
317 272 Emma MCDERMOTT Oxford Tri F35-39 Female E133055 02:28:37 317 14 54
318 462 Stephen ELLISON Fusion Triathlon Club M45-49 Male S1039834 02:28:39 318 48 261
319 517 Glenn WILKINSON U/A M45-49 Male E1048337 02:28:42 319 29 262
320 349 Miriam RENNET Monifieth Triathlon Club F50-54 Female S1035140 02:28:54 320 4 55
321 568 Andre BLINCOWE U/A M50-54 Male E1045688 02:28:55 321 30 263
322 160 Guy BICKNELL coventry triathletes M35-39 Male E1049784 02:29:02 322 41 264
323 599 Steven ADAMS Wellingborough & District AC M55-59 Male   02:29:02 323 14 265
324 484 Graeme MONTEITH SY Tri (Shrewsbury Triathlon) M45-49 Male E1043956 02:29:04 324 49 266
325 74 Darren HORROCKS U/A M25-29 Male   02:29:05 325 28 267
326 319 Lorraine AYRES Somerset RC Tri F45-49 Female   02:29:05 326 11 56
327 494 Luca TREBINO TUNBRIDGE WELLS HARRIERS M45-49 Male   02:29:09 327 50 268
328 151 Howard MAYERS Rochdale Triathlon Club M35-39 Male   02:29:16 328 42 269
329 344 Ludovica BRUNO SERPENTINE RUNNING CLUB F50-54 Female   02:29:25 329 5 57
330 453 Paul WARWICK U/A M45-49 Male   02:29:25 330 51 270
331 297 Linda DE MAX U/A F40-44 Female   02:29:32 331 12 58
332 580 Peter HAYWARD Exeter Triathlon Club M55-59 Male   02:29:32 332 15 271
333 208 Heather GUY Thames Valley Triathletes F20-24 Female E1055841 02:29:34 333 4 59
334 545 Anthony PRICE west midlands police M50-54 Male   02:29:37 334 31 272
335 506 Paul GRANT U/A M45-49 Male   02:29:38 335 52 273
336 294 Charlotte MOUNTAIN SY Tri (Shrewsbury Triathlon) F40-44 Female E131979 02:29:42 336 6 60
337 346 Ros LAWSON Fusion Triathlon Club F50-54 Female S1034274 02:29:44 337 6 61
338 562 John KEHOE U/A M50-54 Male   02:29:53 338 32 274
339 230 Debbie CHISHOLM SERPENTINE RUNNING CLUB F25-29 Female E1054972 02:29:57 339 11 62
340 486 Greg BARBER U/A M45-49 Male E1049219 02:30:10 340 53 275
341 60 Mike WHEELER Northants Tri Club M25-29 Male E1051399 02:30:16 341 35 276
342 273 Nicola FLEMING U/A F35-39 Female   02:30:17 342 15 63
343 105 Huw RICHARDS INTRtri M30-34 Male   02:30:23 343 29 277
344 207 Rachel HARDY Durham University Triathlon Club F20-24 Female E1047128 02:30:30 344 5 64
345 336 Sharon CHLADEK Mid Sussex Triathlon Club F45-49 Female E1034162 02:30:30 345 7 65
346 320 Sarah MARTINDALE Bristol & District Triathletes (Bad Tri) F45-49 Female E1043905 02:30:35 346 13 66
347 598 Steve GRATTON Wight Tri M55-59 Male E1038062 02:30:35 347 16 278
348 659 Michael MCKINNELL Two Rivers Running M60-64 Male E1049387 02:30:44 348 3 279
349 318 Philippa DAVIES U/A F45-49 Female E1032218 02:30:52 349 14 67
350 254 Katie HOOPER Bristol & District Triathletes (Bad Tri) F30-34 Female E101 02:30:53 350 16 68
351 528 Chris LAUGHTON Cerist Triathlon Club M50-54 Male   02:30:53 351 33 280
352 163 Dion BENNETT-WILLIAMS U/A M35-39 Male W1052765 02:30:57 352 43 281
353 662 Colin HUNT Wrecsam Tri Club M60-64 Male W1042428 02:31:04 353 4 282
354 246 Ruth HARRIS Sheffield Triathlon Club F30-34 Female   02:31:05 354 9 69
355 505 Kevin ANSON Black Country Triathletes M45-49 Male E138001 02:31:06 355 54 283
356 448 James EVANS U/A M45-49 Male W122498 02:31:10 356 55 284
357 452 Matthew LUNNON Pentyrch Wheelers M45-49 Male   02:31:11 357 56 285
358 341 Kath FINN Kendal Tri Club F50-54 Female E1050944 02:31:12 358 8 70
359 215 Leanne WATTERS U/A F20-24 Female E1056177 02:31:14 359 12 71
360 491 Ed PAXTON Wrecsam Tri Club M45-49 Male W137287 02:31:24 360 57 286
361 400 Neil HOGGARTH Mersey Tri M40-44 Male   02:31:25 361 45 287
362 159 Richard CLARKE U/A M35-39 Male   02:31:29 362 44 288
363 335 Kimberly BURNS U/A F45-49 Female E1045569 02:31:32 363 9 72
364 352 Helen HOWELLS Leamington C and AC F50-54 Female E134535 02:31:40 364 10 73
365 226 Eleanor MURPHY SERPENTINE RUNNING CLUB F25-29 Female E1039367 02:31:55 365 13 74
366 507 Lee HUGHES U/A M45-49 Male   02:31:56 366 58 289
367 455 John JONES U/A M45-49 Male   02:32:03 367 59 290
368 250 Lucy HURLEY NiceTri F30-34 Female E1051300 02:32:07 368 17 75
369 135 Rhys DAVIES Clwb Beicio Bala M35-39 Male W1051404 02:32:15 369 45 291
370 500 Paul DAVIS U/A M45-49 Male   02:32:15 370 60 292
371 283 Anna SHIMALI City of Chester Triathlon Club F40-44 Female   02:32:31 371 7 76
372 53 Adeeb Ahmed HOSSAIN Bristol & District Triathletes (Bad Tri) M25-29 Male E1055910 02:32:35 372 36 293
373 209 Natalie MITCHELL U/A F20-24 Female E134379 02:32:39 373 6 77
374 218 Annabel HEANEY Team Cherwell F25-29 Female   02:32:42 374 14 78
375 270 Alison PICKARD U/A F35-39 Female   02:32:42 375 18 79
376 685 Antony DALA Relay - Antony Dala BREL Unisex E1055017 02:32:42 376 1 3
377 253 Anne DE ROVER U/A F30-34 Female E1052277 02:32:46 377 19 80
378 289 Judith HAGGER Tunbridge Wells Triathlon Club F40-44 Female E1052034 02:32:54 378 8 81
379 75 Tim MACHIN Born2Tri M25-29 Male E1051681 02:32:58 379 30 294
380 274 Julie BRADFORD Tri Spirit Team F35-39 Female E1035395 02:33:04 380 20 82
381 314 Ceri COOK U/A F45-49 Female W1048796 02:33:07 381 15 83
382 681 Rob POWELL Relay - Rob Powell BREL Unisex   02:33:15 382 1 4
383 291 Vicky HORROCKS Leeds Bradford Triathlon F40-44 Female E1038006 02:33:17 383 9 84
384 299 Leanne GARNER Brighton Triathlon Club F40-44 Female E1048241 02:33:25 384 16 85
385 461 Mark SAMPSON U/A M45-49 Male   02:33:30 385 61 295
386 397 Fernando GAMERO VO2 maximum racing team M40-44 Male E123499 02:33:40 386 46 296
387 171 Walter DE ROVER U/A M35-39 Male   02:33:42 387 46 297
388 353 Elaine CALLINAN Solihull Triathlon club F50-54 Female E1045038 02:33:55 388 1 86
389 235 Emma HUGHES Brighton Phoenix F30-34 Female E1044268 02:34:03 389 10 87
390 120 James DOYLE U/A M30-34 Male   02:34:14 390 47 298
391 518 Michael PARKER U/A M45-49 Male   02:34:16 391 34 299
392 587 Mike HELLAND U/A M55-59 Male E1054811 02:34:29 392 17 300
393 658 Berwyn JONES Padarn Tri M60-64 Male W15999 02:34:52 393 5 301
394 355 Christina ROACH City of Chester Triathlon Club F55-59 Female   02:35:00 394 2 88
395 327 Susie COUGHLAN U/A F45-49 Female E1043418 02:35:11 395 17 89
396 389 Neil LEMMON Leicester Tri Club M40-44 Male E131614 02:35:44 396 47 302
397 667 Steve LOWE Rochdale Triathlon Club M60-64 Male E1052691 02:35:50 397 6 303
398 295 Wendy SANDFORD Manx Tri Club F40-44 Female   02:35:52 398 10 90
399 288 Katy TOMS Tri Team Wessex F40-44 Female E1048484 02:36:00 399 11 91
400 188 James PIERCE U/A M35-39 Male   02:36:21 400 48 304
401 577 David LAZARUS Clwb Beicio Bala M50-54 Male   02:36:24 401 18 305
402 370 Neil WYN-JONES U/A M40-44 Male   02:36:27 402 49 306
403 555 David MOORE Pembrokeshire Triathlon Club M50-54 Male W130890 02:36:27 403 35 307
404 348 Bev HENDLEY U/A F50-54 Female E1044213 02:36:45 404 11 92
405 284 Claire BIRCH OO Tri (Oswestry Olympians) F40-44 Female E1220045 02:37:05 405 12 93
406 468 Joe NORMAN Wight Tri M45-49 Male   02:37:09 406 62 308
407 170 Danny LEE Iron Pigs M35-39 Male   02:37:17 407 48 309
408 326 Sue ANSTISS Evo Tri Club F45-49 Female   02:37:19 408 18 94
409 304 Trudi CUNNINGHAM Chichester Westgate Triathlon Club F45-49 Female E1033309 02:38:19 409 19 95
410 316 Christine O'SHEA Manx Tri Club F45-49 Female E1053266 02:38:35 410 20 96
411 578 Paul CHEETHAM U/A M50-54 Male   02:38:35 411 19 310
412 653 Mark SIMS Brecon Triathlon Club M55-59 Male W132457 02:38:40 412 7 311
413 671 Derek BARLOW TTC M60-64 Male E133711 02:38:40 413 8 312
414 328 Gudrun MEISL TFN Tri Club F45-49 Female E1035346 02:38:49 414 21 97
415 216 Nadine PILKINGTON Wrecsam Tri Club F25-29 Female W1055573 02:38:56 415 15 98
416 231 Gemma PHILLIPS SERPENTINE RUNNING CLUB F25-29 Female E1051202 02:38:58 416 11 99
417 476 Nigel BRISCOE Black Country Triathletes M45-49 Male E1055859 02:39:14 417 63 313
418 503 Michael NISBETT Team Cherwell M45-49 Male   02:39:15 418 64 314
419 175 Christopher LAWS U/A M35-39 Male   02:39:20 419 49 315
420 237 Kasia GILEWICZ Hillingdon Triathletes F30-34 Female E1035540 02:39:21 420 12 100
421 393 Michael GANDY City of Chester Triathlon Club M40-44 Male   02:39:28 421 50 316
422 38 Sean GREENWOOD Rossendale RC M20-24 Male   02:39:29 422 37 317
423 168 Simon O'NEILL U/A M35-39 Male E1044258 02:39:38 423 50 318
424 670 Rob REYNOLDS breakfast club M60-64 Male E1041194 02:39:42 424 9 319
425 347 Mary NORMAN Wight Tri F50-54 Female   02:39:43 425 12 101
426 473 Mike COCKBURN Mersey Tri M45-49 Male   02:39:47 426 65 320
427 666 Sam MOUNTAIN SYtri(Shrewsbury Triathlon) M60-64 Male E10356 02:39:47 427 10 321
428 558 Roger SEXTY U/A M50-54 Male   02:39:53 428 36 322
429 147 Phil CROKER U/A M35-39 Male   02:40:12 429 51 323
430 310 Sarah WILKINS Bristol & District Triathletes (Bad Tri) F45-49 Female E1040426 02:40:20 430 22 102
431 594 Tony RUSSELL U/A M55-59 Male E1044548 02:40:25 431 20 324
432 191 Nicholas CHARLES Bristol & District Triathletes (Bad Tri) M35-39 Male   02:40:58 432 51 325
433 417 Chris DOWNING U/A M40-44 Male E1042255 02:41:13 433 52 326
434 585 Pedro POLSON Pactrac - Peterborough Area Combined Triathlon Cl M55-59 Male E134609 02:41:19 434 21 327
435 206 Megan SMITH Rochdale Triathlon Club F19-19 Female   02:41:30 435 7 103
436 177 Steve KAYE TEAM MANVERS M35-39 Male   02:42:01 436 52 328
437 549 Andrew ROBERTS Clwb Beicio Y Bala M50-54 Male   02:42:06 437 37 329
438 394 Edward RIMMER U/A M40-44 Male   02:42:17 438 53 330
439 245 Clare WALKEDEN coventry triathletes F30-34 Female   02:42:41 439 13 104
440 593 Stephen THOMAS Durham Triathlon Club M55-59 Male E134206 02:42:48 440 22 331
441 398 Stephen VAID U/A M40-44 Male E1050546 02:43:02 441 54 332
442 401 William JONES Metropolitan Police Triathlon Club M40-44 Male   02:43:02 442 55 333
443 552 Adrian EBBS Kings Lynn Triathlon Club M50-54 Male E1045013 02:43:10 443 38 334
444 661 Roger BREWER Exeter Tri M60-64 Male E15333 02:43:19 444 11 335
445 588 Dave THOMPSON Carlisle Tri Club M55-59 Male   02:43:25 445 23 336
446 267 Eleanor DAVIES Clwb Beicio Bala F35-39 Female W1051307 02:43:32 446 21 105
447 339 Lesley BERRY Team Milton Keynes F50-54 Female E1049583 02:43:51 447 13 106
448 286 Amy HOWELL U/A F40-44 Female   02:44:16 448 13 107
449 169 Rod DEVERSON U/A M35-39 Male   02:44:44 449 53 337
450 686 Nicholas HALL Relay - Nicholas Hall BREL Unisex   02:44:48 450 1 5
451 550 Nic NORTH U/A M50-54 Male   02:44:55 451 39 338
452 482 Kevin KNOTT SY Tri (Shrewsbury Triathlon) M45-49 Male   02:45:14 452 66 339
453 668 David HAMLETT U/A M60-64 Male   02:45:31 453 12 340
454 566 Michael SMITH U/A M50-54 Male   02:45:57 454 40 341
455 30 Jonathan NORRIS City of Chester Triathlon Club M20-24 Male E1036381 02:46:04 455 26 342
456 657 Jim KIRKLAND Greenwich Tritons M55-59 Male E1034384 02:46:12 456 13 343
457 351 Claire BALLAMY Wrecsam Tri Club F50-54 Female W128836 02:46:32 457 14 108
458 543 Patrick SHOVLIN Manchester Triathlon Club M50-54 Male   02:46:52 458 41 344
459 665 Graham HARRISON U/A M60-64 Male E136400 02:47:06 459 14 345
460 357 Alice WALDRON U/A F60-64 Female E128072 02:47:18 460 2 109
461 554 Huw REES Mold Masters M50-54 Male W1046670 02:47:21 461 42 346
462 419 Stephen WILLIAMS G.T.L M40-44 Male   02:47:28 462 56 347
463 345 Elizabeth DAVIES-WARD Hereford Triathlon Club F50-54 Female   02:47:34 463 15 110
464 307 Nicola SPENCER North Devon Triathletes F45-49 Female E132191 02:48:00 464 23 111
465 343 Fran JONES SY Tri (Shrewsbury Triathlon) F50-54 Female   02:48:32 465 16 112
466 201 Caroline FUREY Stratford Sharks F16-19 Female E1032536 02:49:00 466 8 113
467 290 Alison WILKS Delamere Spartans F40-44 Female   02:49:00 467 14 114
468 444 John ANDREW Cadence Tri M45-49 Male W1054349 02:49:01 468 67 348
469 242 Elizabeth PALMER U/A F30-34 Female   02:49:09 469 14 115
470 282 Emma KEARNEY U/A F40-44 Female   02:49:29 470 15 116
471 579 Steven WYATT U/A M55-59 Male   02:49:30 471 24 349
472 381 Craig KESTEVEN U/A M40-44 Male   02:49:34 472 57 350
473 354 Beate VOGT Serpentine RC F55-59 Female E12145 02:50:03 473 3 117
474 259 Megan JOHNSTON Stratford upon Avon AC F35-39 Female E138108 02:50:18 474 22 118
475 195 Ian ROBERTSON U/A M35-39 Male   02:50:22 475 58 351
476 164 Simon BESWICK Rochdale Triathlon Club M35-39 Male E1043917 02:50:33 476 54 352
477 323 Louise MOORE Scarab Triathlon Club F45-49 Female E1037566 02:50:35 477 24 119
478 656 Phil CATTON Wrecsam Tri Club M55-59 Male W1048090 02:50:44 478 15 353
479 189 Stephen LIPSCOMBE U/A M35-39 Male   02:51:00 479 59 354
480 496 Alan MORRIS U/A M45-49 Male   02:51:18 480 68 355
481 93 Mark KENDRICK U/A M30-34 Male   02:51:24 481 31 356
482 651 Cliff SHARDALOW Moray Firth Triathlon Club M55-59 Male S1041770 02:51:24 482 16 357
483 683 Deb MAY Relay - Deb May BREL Unisex   02:51:44 483 2 6
484 202 Lauren MORETON Black Country Triathletes F16-19 Female E1030919 02:51:56 484 9 120
485 520 Andy BADNELL SY Tri M45-49 Male   02:51:59 485 43 358
486 527 David CLACHER U/A M50-54 Male   02:52:01 486 44 359
487 547 Mike JACKSON U/A M50-54 Male   02:52:15 487 45 360
488 443 Mike ROXBURGH U/A M45-49 Male   02:52:23 488 69 361
489 553 Dave EVANS Black Country Triathletes M50-54 Male E1039137 02:52:34 489 46 362
490 337 Morag THOMPSON CarlisleTri Club F50-54 Female E1043391 02:52:40 490 17 121
491 255 Kate MILLER U/A F30-34 Female   02:52:41 491 23 122
492 669 Robert LONGAIR Ocean Lake Tri M60-64 Male E1047017 02:53:01 492 17 363
493 687 Ashley MCCRAIGHT Relay - Teds Team BREL Unisex   02:53:06 493 1 7
494 480 Toby CAMPBELL Camberwell Carrots M45-49 Male   02:53:10 494 70 364
495 655 Patrick CREEDON U/A M55-59 Male   02:53:24 495 18 365
496 123 Tommy HART U/A M30-34 Male   02:53:30 496 55 366
497 176 Craig SOMMERVILLE U/A M35-39 Male E3138827 02:53:32 497 56 367
498 521 Graham JAMES Mersey Tri M45-49 Male   02:53:45 498 47 368
499 660 Rolf WESTRUM Mersey Tri M60-64 Male E1031568 02:53:46 499 19 369
500 540 Peter COGINGS U/A M50-54 Male E1046600 02:53:50 500 48 370
501 143 Wayne TOMLINSON U/A M35-39 Male   02:54:21 501 57 371
502 674 Barry BENNETT U/A M65-69 Male E1032417 02:54:26 502 1 372
503 569 David GREENWOOD Rossendale RC M50-54 Male   02:54:38 503 25 373
504 464 Sean JENKINS U/A M45-49 Male   02:54:46 504 71 374
505 330 Tej QUINE Cardiff Triathlon Club F45-49 Female   02:55:03 505 18 123
506 541 Michael NORRIS Cadence Tri M50-54 Male W1044592 02:55:22 506 49 375
507 409 Jon WILLIS U/A M40-44 Male   02:55:26 507 60 376
508 451 Jonathan MEDFORTH Derby Triathlon Club M45-49 Male   02:55:36 508 72 377
509 356 Janet SHEPHERD U/A F55-59 Female E128274 02:55:55 509 4 124
510 536 Geoff ROBERTS U/A M50-54 Male   02:56:03 510 50 378
511 186 Steven BOWERS U/A M35-39 Male   02:56:11 511 58 379
512 408 Mark CADMAN Bala Cycling Club M40-44 Male   02:56:41 512 61 380
513 331 Jane LINDLEY Buckley Runners F45-49 Female   02:57:04 513 19 125
514 311 Karen PARNELL Freedom Tri F45-49 Female E133202 02:57:48 514 25 126
515 682 Sara JONES Relay - Sara Jones BREL Unisex   02:58:24 515 1 8
516 302 Anna SEALE U/A F45-49 Female   02:58:34 516 26 127
517 249 Sarah HODGKINSON Abc Triathlon F30-34 Female E130415 02:59:31 517 15 128
518 433 Christian STEPHENSON Meynell Valley Hunters Triathlon Club M40-44 Male   02:59:35 518 73 381
519 233 Bethan MAGGS City of Chester Triathlon Club F30-34 Female   03:00:13 519 16 129
520 359 Paula MCCANN Two Rivers Running F65-69 Female E1048952 03:01:09 520 1 130
521 675 Graham REYNOLDS coventry triathletes M65-69 Male E4470 03:01:19 521 2 382
522 281 Jenny CREWE Oxford Tri F40-44 Female   03:02:36 522 16 131
523 296 Susan SILK Black Country Triathletes F40-44 Female E1035566 03:03:43 523 17 132
524 504 David WATERHOUSE U/A M45-49 Male   03:04:04 524 74 383
525 139 Dan BUNSTONE U/A M35-39 Male   03:04:05 525 59 384
526 676 Anthony LAW U/A M65-69 Male E131361 03:04:32 526 3 385
527 94 Mark COTSON U/A M30-34 Male   03:05:01 527 32 386
528 194 Jason FRIEND U/A M35-39 Male   03:05:20 528 62 387
529 107 Neil RYDER U/A M30-34 Male   03:06:10 529 33 388
530 672 Geoffrey ENOCH U/A M60-64 Male   03:06:32 530 4 389
531 236 Naomi REYNOLDS coventry triathletes F30-34 Female   03:06:49 531 17 133
532 570 Ian OLIVER Rochdale Triathlon Club M50-54 Male E1053185 03:06:54 532 26 390
533 146 Matthew KELK U/A M35-39 Male   03:07:21 533 60 391
534 526 David SLOAN U/A M50-54 Male   03:07:27 534 51 392
535 652 Michael KENDALL Wootton Tri M55-59 Male E133843 03:07:50 535 20 393
536 561 Nick CHAMBERLAIN SYTri M50-54 Male E1049130 03:08:01 536 52 394
537 257 Elly PULLEN Leicester Tri Club F30-34 Female E1046754 03:08:57 537 24 134
538 572 Graham NELLIST City of Chester Triathlon Club M50-54 Male   03:09:16 538 27 395
539 265 Lee MORROW SERPENTINE RUNNING CLUB F35-39 Female E1051325 03:09:28 539 25 135
540 502 Glen WAREING U/A M45-49 Male   03:14:25 540 75 396
541 575 Tony DOYLE Ashurst Bike Club M50-54 Male   03:14:26 541 28 397
542 118 Christopher OAKEY U/A M30-34 Male   03:14:59 542 61 398
543 98 Owen HURLEY NiceTri M30-34 Male W1051434 03:16:05 543 34 399
544 589 James MOORE U/A M55-59 Male   03:17:43 544 29 400
545 678 Peter NORMAN Wrecsam Tri Club M75-79 Male E3190 03:19:29 545 1 401
546 329 Shirley SNEDDON Rochdale Triathlon Club F45-49 Female E1053186 03:19:40 546 27 136
547 332 Anita SMITH ROCHDALE TRI CLUB F45-49 Female   03:22:19 547 20 137
548 113 Rick PURCELL U/A M30-34 Male   03:39:45 548 35 402
549 306 Tina OWEN U/A F45-49 Female   03:46:09 549 28 138
550 321 Donna COX U/A F45-49 Female   04:09:58 550 29 139